sensor_id;sensor_type;location;lat;lon;timestamp;pressure;altitude;pressure_sealevel;temperature;humidity
23589;BME280;11972;48.078;11.876;2023-01-25T00:01:53;96798.44;;;1.38;100.00
23589;BME280;11972;48.078;11.876;2023-01-25T00:06:00;96794.44;;;1.18;100.00
23589;BME280;11972;48.078;11.876;2023-01-25T00:10:03;96807.63;;;1.15;100.00
23589;BME280;11972;48.078;11.876;2023-01-25T00:14:04;96806.34;;;1.08;100.00
23589;BME280;11972;48.078;11.876;2023-01-25T00:18:04;96792.28;;;1.10;100.00
23589;BME280;11972;48.078;11.876;2023-01-25T00:22:05;96797.94;;;1.31;100.00
23589;BME280;11972;48.078;11.876;2023-01-25T00:26:05;96794.22;;;1.35;100.00
23589;BME280;11972;48.078;11.876;2023-01-25T00:30:06;96785.50;;;1.22;100.00
23589;BME280;11972;48.078;11.876;2023-01-25T00:38:33;96789.03;;;0.78;100.00
23589;BME280;11972;48.078;11.876;2023-01-25T00:42:33;96797.69;;;0.93;100.00
23589;BME280;11972;48.078;11.876;2023-01-25T00:46:34;96795.19;;;0.91;100.00
23589;BME280;11972;48.078;11.876;2023-01-25T00:50:36;96793.66;;;0.73;100.00
23589;BME280;11972;48.078;11.876;2023-01-25T00:54:36;96798.06;;;0.87;100.00
23589;BME280;11972;48.078;11.876;2023-01-25T00:58:37;96789.59;;;0.97;100.00
23589;BME280;11972;48.078;11.876;2023-01-25T01:02:37;96795.09;;;1.07;100.00
23589;BME280;11972;48.078;11.876;2023-01-25T01:06:38;96794.34;;;1.19;100.00
23589;BME280;11972;48.078;11.876;2023-01-25T01:10:39;96793.13;;;1.25;100.00
23589;BME280;11972;48.078;11.876;2023-01-25T01:14:39;96787.53;;;1.31;100.00
23589;BME280;11972;48.078;11.876;2023-01-25T01:18:42;96787.47;;;1.33;100.00
23589;BME280;11972;48.078;11.876;2023-01-25T01:22:43;96795.34;;;1.31;100.00
23589;BME280;11972;48.078;11.876;2023-01-25T01:26:43;96779.38;;;1.23;100.00
23589;BME280;11972;48.078;11.876;2023-01-25T01:30:44;96786.63;;;1.18;100.00
23589;BME280;11972;48.078;11.876;2023-01-25T01:34:44;96777.78;;;1.06;100.00
23589;BME280;11972;48.078;11.876;2023-01-25T01:38:45;96785.91;;;1.16;100.00
23589;BME280;11972;48.078;11.876;2023-01-25T01:42:59;96776.88;;;1.21;100.00
23589;BME280;11972;48.078;11.876;2023-01-25T01:47:00;96781.34;;;0.91;100.00
23589;BME280;11972;48.078;11.876;2023-01-25T01:51:20;96783.47;;;0.98;100.00
23589;BME280;11972;48.078;11.876;2023-01-25T01:55:22;96784.69;;;1.07;100.00
23589;BME280;11972;48.078;11.876;2023-01-25T01:59:27;96779.66;;;1.18;100.00
23589;BME280;11972;48.078;11.876;2023-01-25T02:03:30;96773.16;;;1.26;100.00
23589;BME280;11972;48.078;11.876;2023-01-25T02:07:33;96779.13;;;1.28;100.00
23589;BME280;11972;48.078;11.876;2023-01-25T02:11:34;96778.06;;;1.30;100.00
23589;BME280;11972;48.078;11.876;2023-01-25T02:15:39;96765.44;;;1.24;100.00
23589;BME280;11972;48.078;11.876;2023-01-25T02:19:51;96771.41;;;1.12;100.00
23589;BME280;11972;48.078;11.876;2023-01-25T02:28:04;96759.28;;;1.11;100.00
23589;BME280;11972;48.078;11.876;2023-01-25T02:32:06;96766.84;;;1.15;100.00
23589;BME280;11972;48.078;11.876;2023-01-25T02:40:07;96754.81;;;1.27;100.00
23589;BME280;11972;48.078;11.876;2023-01-25T02:44:23;96762.09;;;1.22;100.00
23589;BME280;11972;48.078;11.876;2023-01-25T02:48:24;96755.09;;;1.22;100.00
23589;BME280;11972;48.078;11.876;2023-01-25T02:52:25;96748.53;;;1.17;100.00
23589;BME280;11972;48.078;11.876;2023-01-25T02:56:25;96749.25;;;1.19;100.00
23589;BME280;11972;48.078;11.876;2023-01-25T03:00:26;96743.13;;;1.20;100.00
23589;BME280;11972;48.078;11.876;2023-01-25T03:04:26;96742.38;;;1.18;100.00
23589;BME280;11972;48.078;11.876;2023-01-25T03:08:26;96749.81;;;1.24;100.00
23589;BME280;11972;48.078;11.876;2023-01-25T03:12:27;96735.88;;;1.25;100.00
23589;BME280;11972;48.078;11.876;2023-01-25T03:16:29;96742.94;;;1.23;100.00
23589;BME280;11972;48.078;11.876;2023-01-25T03:20:30;96740.53;;;1.20;100.00
23589;BME280;11972;48.078;11.876;2023-01-25T03:24:30;96736.72;;;1.26;100.00
23589;BME280;11972;48.078;11.876;2023-01-25T03:28:31;96739.97;;;1.29;100.00
23589;BME280;11972;48.078;11.876;2023-01-25T03:32:31;96744.41;;;1.27;100.00
23589;BME280;11972;48.078;11.876;2023-01-25T03:36:31;96735.34;;;1.20;100.00
23589;BME280;11972;48.078;11.876;2023-01-25T03:40:32;96734.59;;;0.89;100.00
23589;BME280;11972;48.078;11.876;2023-01-25T03:44:32;96741.47;;;0.90;100.00
23589;BME280;11972;48.078;11.876;2023-01-25T03:48:32;96732.94;;;0.88;100.00
23589;BME280;11972;48.078;11.876;2023-01-25T03:52:33;96726.59;;;0.92;100.00
23589;BME280;11972;48.078;11.876;2023-01-25T03:56:37;96739.63;;;0.92;100.00
23589;BME280;11972;48.078;11.876;2023-01-25T04:00:38;96730.50;;;0.99;100.00
23589;BME280;11972;48.078;11.876;2023-01-25T04:04:38;96733.66;;;1.05;100.00
23589;BME280;11972;48.078;11.876;2023-01-25T04:08:38;96732.00;;;1.04;100.00
23589;BME280;11972;48.078;11.876;2023-01-25T04:12:40;96720.53;;;1.06;100.00
23589;BME280;11972;48.078;11.876;2023-01-25T04:16:40;96720.53;;;1.06;100.00
23589;BME280;11972;48.078;11.876;2023-01-25T04:20:41;96726.31;;;1.11;100.00
23589;BME280;11972;48.078;11.876;2023-01-25T04:24:42;96710.34;;;1.03;100.00
23589;BME280;11972;48.078;11.876;2023-01-25T04:28:42;96710.44;;;1.02;100.00
23589;BME280;11972;48.078;11.876;2023-01-25T04:32:43;96706.16;;;1.01;100.00
23589;BME280;11972;48.078;11.876;2023-01-25T04:36:43;96708.66;;;1.02;100.00
23589;BME280;11972;48.078;11.876;2023-01-25T04:40:44;96697.59;;;0.98;100.00
23589;BME280;11972;48.078;11.876;2023-01-25T04:44:45;96693.72;;;0.91;100.00
23589;BME280;11972;48.078;11.876;2023-01-25T04:48:45;96698.66;;;0.96;100.00
23589;BME280;11972;48.078;11.876;2023-01-25T04:52:45;96705.50;;;0.97;100.00
23589;BME280;11972;48.078;11.876;2023-01-25T04:56:45;96709.69;;;0.99;100.00
23589;BME280;11972;48.078;11.876;2023-01-25T05:00:46;96703.44;;;1.02;100.00
23589;BME280;11972;48.078;11.876;2023-01-25T05:04:46;96693.03;;;1.02;100.00
23589;BME280;11972;48.078;11.876;2023-01-25T05:08:46;96691.56;;;1.12;100.00
23589;BME280;11972;48.078;11.876;2023-01-25T05:12:47;96683.28;;;1.06;100.00
23589;BME280;11972;48.078;11.876;2023-01-25T05:16:47;96684.34;;;1.03;100.00
23589;BME280;11972;48.078;11.876;2023-01-25T05:20:53;96686.47;;;0.96;100.00
23589;BME280;11972;48.078;11.876;2023-01-25T05:24:53;96681.75;;;0.74;100.00
23589;BME280;11972;48.078;11.876;2023-01-25T05:28:54;96680.34;;;0.69;100.00
23589;BME280;11972;48.078;11.876;2023-01-25T05:32:54;96667.34;;;0.69;100.00
23589;BME280;11972;48.078;11.876;2023-01-25T05:36:55;96671.25;;;0.76;100.00
23589;BME280;11972;48.078;11.876;2023-01-25T05:40:57;96670.13;;;0.80;100.00
23589;BME280;11972;48.078;11.876;2023-01-25T05:44:57;96673.19;;;0.87;100.00
23589;BME280;11972;48.078;11.876;2023-01-25T05:48:58;96673.81;;;0.90;100.00
23589;BME280;11972;48.078;11.876;2023-01-25T05:52:58;96672.63;;;0.96;100.00
23589;BME280;11972;48.078;11.876;2023-01-25T05:56:58;96675.31;;;0.94;100.00
23589;BME280;11972;48.078;11.876;2023-01-25T06:01:00;96668.34;;;0.81;100.00
23589;BME280;11972;48.078;11.876;2023-01-25T06:05:00;96668.19;;;0.84;100.00
23589;BME280;11972;48.078;11.876;2023-01-25T06:09:01;96661.22;;;0.84;100.00
23589;BME280;11972;48.078;11.876;2023-01-25T06:13:01;96661.09;;;0.86;100.00
23589;BME280;11972;48.078;11.876;2023-01-25T06:17:02;96648.75;;;0.89;100.00
23589;BME280;11972;48.078;11.876;2023-01-25T06:21:03;96647.06;;;0.88;100.00
23589;BME280;11972;48.078;11.876;2023-01-25T06:25:04;96653.22;;;0.87;100.00
23589;BME280;11972;48.078;11.876;2023-01-25T06:29:05;96661.56;;;0.92;100.00
23589;BME280;11972;48.078;11.876;2023-01-25T06:33:05;96654.91;;;0.60;100.00
23589;BME280;11972;48.078;11.876;2023-01-25T06:37:06;96651.59;;;0.58;100.00
23589;BME280;11972;48.078;11.876;2023-01-25T06:41:09;96658.59;;;0.70;100.00
23589;BME280;11972;48.078;11.876;2023-01-25T06:45:10;96660.44;;;0.82;100.00
23589;BME280;11972;48.078;11.876;2023-01-25T06:49:10;96647.81;;;0.90;100.00
23589;BME280;11972;48.078;11.876;2023-01-25T06:53:11;96637.41;;;0.90;100.00
23589;BME280;11972;48.078;11.876;2023-01-25T06:57:11;96623.19;;;0.96;100.00
23589;BME280;11972;48.078;11.876;2023-01-25T07:05:12;96620.88;;;0.91;100.00
23589;BME280;11972;48.078;11.876;2023-01-25T07:09:13;96624.22;;;0.93;100.00
23589;BME280;11972;48.078;11.876;2023-01-25T07:13:13;96621.59;;;0.93;100.00
23589;BME280;11972;48.078;11.876;2023-01-25T07:17:14;96620.88;;;0.91;100.00
23589;BME280;11972;48.078;11.876;2023-01-25T07:21:17;96618.66;;;0.85;100.00
23589;BME280;11972;48.078;11.876;2023-01-25T07:25:19;96618.66;;;0.85;100.00
23589;BME280;11972;48.078;11.876;2023-01-25T07:29:19;96612.78;;;0.96;100.00
23589;BME280;11972;48.078;11.876;2023-01-25T07:33:20;96617.53;;;0.89;100.00
23589;BME280;11972;48.078;11.876;2023-01-25T07:37:20;96618.94;;;0.95;100.00
23589;BME280;11972;48.078;11.876;2023-01-25T07:41:21;96621.88;;;1.03;100.00
23589;BME280;11972;48.078;11.876;2023-01-25T07:45:22;96607.34;;;1.13;100.00
23589;BME280;11972;48.078;11.876;2023-01-25T07:49:29;96613.19;;;1.17;100.00
23589;BME280;11972;48.078;11.876;2023-01-25T07:53:29;96614.22;;;1.14;100.00
23589;BME280;11972;48.078;11.876;2023-01-25T07:57:29;96611.53;;;1.16;100.00
23589;BME280;11972;48.078;11.876;2023-01-25T08:01:30;96624.66;;;1.27;100.00
23589;BME280;11972;48.078;11.876;2023-01-25T08:05:34;96626.97;;;1.05;100.00
23589;BME280;11972;48.078;11.876;2023-01-25T08:09:34;96614.94;;;0.89;100.00
23589;BME280;11972;48.078;11.876;2023-01-25T08:13:34;96616.94;;;0.98;100.00
23589;BME280;11972;48.078;11.876;2023-01-25T08:17:35;96610.25;;;1.09;100.00
23589;BME280;11972;48.078;11.876;2023-01-25T08:21:35;96601.31;;;1.13;100.00
23589;BME280;11972;48.078;11.876;2023-01-25T08:25:36;96610.94;;;1.25;100.00
23589;BME280;11972;48.078;11.876;2023-01-25T08:29:36;96611.28;;;1.33;100.00
23589;BME280;11972;48.078;11.876;2023-01-25T08:33:37;96610.78;;;1.41;100.00
23589;BME280;11972;48.078;11.876;2023-01-25T08:37:37;96608.25;;;1.39;100.00
23589;BME280;11972;48.078;11.876;2023-01-25T08:41:37;96605.09;;;1.21;100.00
23589;BME280;11972;48.078;11.876;2023-01-25T08:45:38;96604.44;;;1.18;100.00
23589;BME280;11972;48.078;11.876;2023-01-25T08:49:38;96596.97;;;1.26;100.00
23589;BME280;11972;48.078;11.876;2023-01-25T08:53:39;96592.75;;;1.11;100.00
23589;BME280;11972;48.078;11.876;2023-01-25T08:57:39;96601.34;;;0.98;100.00
23589;BME280;11972;48.078;11.876;2023-01-25T09:01:39;96593.25;;;1.03;100.00
23589;BME280;11972;48.078;11.876;2023-01-25T09:05:40;96581.78;;;1.20;100.00
23589;BME280;11972;48.078;11.876;2023-01-25T09:09:40;96589.28;;;1.24;100.00
23589;BME280;11972;48.078;11.876;2023-01-25T09:13:41;96583.88;;;1.28;100.00
23589;BME280;11972;48.078;11.876;2023-01-25T09:17:44;96582.56;;;1.08;100.00
23589;BME280;11972;48.078;11.876;2023-01-25T09:21:44;96580.97;;;1.32;100.00
23589;BME280;11972;48.078;11.876;2023-01-25T09:25:45;96577.69;;;1.56;100.00
23589;BME280;11972;48.078;11.876;2023-01-25T09:29:45;96581.88;;;1.71;100.00
23589;BME280;11972;48.078;11.876;2023-01-25T09:33:45;96586.38;;;1.69;100.00
23589;BME280;11972;48.078;11.876;2023-01-25T09:37:50;96581.88;;;1.71;100.00
23589;BME280;11972;48.078;11.876;2023-01-25T09:42:18;96567.59;;;1.64;100.00
23589;BME280;11972;48.078;11.876;2023-01-25T09:50:35;96565.00;;;1.64;100.00
23589;BME280;11972;48.078;11.876;2023-01-25T09:54:38;96570.66;;;1.83;100.00
23589;BME280;11972;48.078;11.876;2023-01-25T09:58:43;96569.50;;;1.87;100.00
23589;BME280;11972;48.078;11.876;2023-01-25T10:03:15;96568.56;;;1.88;100.00
23589;BME280;11972;48.078;11.876;2023-01-25T10:07:26;96565.44;;;1.70;100.00
23589;BME280;11972;48.078;11.876;2023-01-25T10:11:31;96555.66;;;1.74;100.00
23589;BME280;11972;48.078;11.876;2023-01-25T10:15:51;96549.28;;;1.78;100.00
23589;BME280;11972;48.078;11.876;2023-01-25T10:20:08;96541.69;;;1.75;100.00
23589;BME280;11972;48.078;11.876;2023-01-25T10:24:24;96539.44;;;1.56;100.00
23589;BME280;11972;48.078;11.876;2023-01-25T10:28:35;96533.84;;;1.62;100.00
23589;BME280;11972;48.078;11.876;2023-01-25T10:32:39;96531.63;;;1.43;100.00
23589;BME280;11972;48.078;11.876;2023-01-25T10:36:39;96521.53;;;1.52;100.00
23589;BME280;11972;48.078;11.876;2023-01-25T10:40:43;96524.25;;;1.63;100.00
23589;BME280;11972;48.078;11.876;2023-01-25T10:44:45;96508.31;;;1.80;100.00
23589;BME280;11972;48.078;11.876;2023-01-25T10:48:46;96507.59;;;2.04;100.00
23589;BME280;11972;48.078;11.876;2023-01-25T10:52:56;96498.50;;;2.09;100.00
23589;BME280;11972;48.078;11.876;2023-01-25T10:56:57;96498.72;;;2.19;100.00
23589;BME280;11972;48.078;11.876;2023-01-25T11:00:58;96493.50;;;2.19;100.00
23589;BME280;11972;48.078;11.876;2023-01-25T11:05:22;96486.81;;;2.28;100.00
23589;BME280;11972;48.078;11.876;2023-01-25T11:09:34;96486.19;;;2.24;100.00
23589;BME280;11972;48.078;11.876;2023-01-25T11:13:39;96474.53;;;2.04;100.00
23589;BME280;11972;48.078;11.876;2023-01-25T11:17:40;96460.41;;;1.70;100.00
23589;BME280;11972;48.078;11.876;2023-01-25T11:21:51;96453.31;;;1.72;100.00
23589;BME280;11972;48.078;11.876;2023-01-25T11:25:51;96443.34;;;1.53;100.00
23589;BME280;11972;48.078;11.876;2023-01-25T11:34:09;96443.31;;;1.66;100.00
23589;BME280;11972;48.078;11.876;2023-01-25T11:38:13;96442.03;;;1.84;100.00
23589;BME280;11972;48.078;11.876;2023-01-25T11:42:26;96436.13;;;1.82;100.00
23589;BME280;11972;48.078;11.876;2023-01-25T11:46:40;96421.63;;;1.91;100.00
23589;BME280;11972;48.078;11.876;2023-01-25T11:59:40;96396.66;;;1.12;100.00
23589;BME280;11972;48.078;11.876;2023-01-25T12:12:43;96365.84;;;1.31;100.00
23589;BME280;11972;48.078;11.876;2023-01-25T12:21:40;96346.84;;;1.67;100.00
23589;BME280;11972;48.078;11.876;2023-01-25T12:30:17;96339.19;;;1.40;100.00
23589;BME280;11972;48.078;11.876;2023-01-25T12:34:31;96330.19;;;1.70;100.00
23589;BME280;11972;48.078;11.876;2023-01-25T12:38:43;96324.22;;;1.68;100.00
23589;BME280;11972;48.078;11.876;2023-01-25T12:42:54;96320.75;;;1.80;100.00
23589;BME280;11972;48.078;11.876;2023-01-25T12:47:04;96320.34;;;1.86;100.00
23589;BME280;11972;48.078;11.876;2023-01-25T12:51:09;96314.47;;;1.95;100.00
23589;BME280;11972;48.078;11.876;2023-01-25T12:55:14;96308.81;;;2.02;100.00
23589;BME280;11972;48.078;11.876;2023-01-25T12:59:38;96305.97;;;2.05;100.00
23589;BME280;11972;48.078;11.876;2023-01-25T13:04:01;96295.28;;;1.96;100.00
23589;BME280;11972;48.078;11.876;2023-01-25T13:12:25;96295.53;;;1.93;100.00
23589;BME280;11972;48.078;11.876;2023-01-25T13:25:06;96293.19;;;1.28;100.00
23589;BME280;11972;48.078;11.876;2023-01-25T13:33:33;96290.66;;;1.39;100.00
23589;BME280;11972;48.078;11.876;2023-01-25T13:37:34;96289.63;;;1.42;100.00
23589;BME280;11972;48.078;11.876;2023-01-25T13:42:02;96281.75;;;1.18;100.00
23589;BME280;11972;48.078;11.876;2023-01-25T13:46:03;96283.03;;;0.99;100.00
23589;BME280;11972;48.078;11.876;2023-01-25T13:50:21;96281.66;;;0.81;100.00
23589;BME280;11972;48.078;11.876;2023-01-25T13:54:21;96281.56;;;0.95;100.00
23589;BME280;11972;48.078;11.876;2023-01-25T13:58:26;96265.63;;;1.13;100.00
23589;BME280;11972;48.078;11.876;2023-01-25T14:02:27;96265.59;;;1.26;100.00
23589;BME280;11972;48.078;11.876;2023-01-25T14:06:31;96271.94;;;1.21;100.00
23589;BME280;11972;48.078;11.876;2023-01-25T14:10:31;96275.28;;;1.11;100.00
23589;BME280;11972;48.078;11.876;2023-01-25T14:14:33;96265.09;;;1.20;100.00
23589;BME280;11972;48.078;11.876;2023-01-25T14:18:35;96260.28;;;1.27;100.00
23589;BME280;11972;48.078;11.876;2023-01-25T14:22:37;96254.44;;;1.36;100.00
23589;BME280;11972;48.078;11.876;2023-01-25T14:26:38;96256.41;;;1.45;100.00
23589;BME280;11972;48.078;11.876;2023-01-25T14:30:41;96249.75;;;1.41;100.00
23589;BME280;11972;48.078;11.876;2023-01-25T14:34:41;96242.34;;;1.35;100.00
23589;BME280;11972;48.078;11.876;2023-01-25T14:38:42;96247.38;;;1.26;100.00
23589;BME280;11972;48.078;11.876;2023-01-25T14:42:43;96237.94;;;1.12;100.00
23589;BME280;11972;48.078;11.876;2023-01-25T14:46:43;96234.19;;;0.90;100.00
23589;BME280;11972;48.078;11.876;2023-01-25T14:50:43;96240.97;;;0.93;100.00
23589;BME280;11972;48.078;11.876;2023-01-25T14:58:47;96223.97;;;1.13;100.00
23589;BME280;11972;48.078;11.876;2023-01-25T15:02:48;96225.78;;;0.99;100.00
23589;BME280;11972;48.078;11.876;2023-01-25T15:06:56;96227.44;;;1.01;100.00
23589;BME280;11972;48.078;11.876;2023-01-25T15:10:58;96215.50;;;0.72;100.00
23589;BME280;11972;48.078;11.876;2023-01-25T15:15:20;96220.38;;;0.77;100.00
23589;BME280;11972;48.078;11.876;2023-01-25T15:19:28;96216.84;;;0.65;100.00
23589;BME280;11972;48.078;11.876;2023-01-25T15:23:29;96226.72;;;0.60;100.00
23589;BME280;11972;48.078;11.876;2023-01-25T15:27:29;96226.03;;;0.58;100.00
23589;BME280;11972;48.078;11.876;2023-01-25T15:31:32;96215.00;;;0.55;100.00
23589;BME280;11972;48.078;11.876;2023-01-25T15:35:32;96211.44;;;0.30;100.00
23589;BME280;11972;48.078;11.876;2023-01-25T15:39:33;96190.97;;;0.38;100.00
23589;BME280;11972;48.078;11.876;2023-01-25T15:43:34;96199.91;;;0.34;100.00
23589;BME280;11972;48.078;11.876;2023-01-25T15:47:35;96190.84;;;0.27;100.00
23589;BME280;11972;48.078;11.876;2023-01-25T15:51:36;96195.34;;;0.25;100.00
23589;BME280;11972;48.078;11.876;2023-01-25T15:55:36;96177.66;;;0.30;100.00
23589;BME280;11972;48.078;11.876;2023-01-25T15:59:38;96185.84;;;0.24;100.00
23589;BME280;11972;48.078;11.876;2023-01-25T16:03:38;96188.06;;;0.30;100.00
23589;BME280;11972;48.078;11.876;2023-01-25T16:07:41;96184.63;;;0.42;100.00
23589;BME280;11972;48.078;11.876;2023-01-25T16:11:43;96185.56;;;0.54;100.00
23589;BME280;11972;48.078;11.876;2023-01-25T16:15:47;96177.00;;;0.65;100.00
23589;BME280;11972;48.078;11.876;2023-01-25T16:19:48;96177.75;;;0.67;100.00
23589;BME280;11972;48.078;11.876;2023-01-25T16:23:50;96172.56;;;0.54;100.00
23589;BME280;11972;48.078;11.876;2023-01-25T16:27:50;96173.59;;;0.52;100.00
23589;BME280;11972;48.078;11.876;2023-01-25T16:31:51;96161.66;;;0.62;100.00
23589;BME280;11972;48.078;11.876;2023-01-25T16:36:09;96165.66;;;0.66;100.00
23589;BME280;11972;48.078;11.876;2023-01-25T16:40:23;96160.25;;;0.69;100.00
23589;BME280;11972;48.078;11.876;2023-01-25T16:44:23;96164.84;;;0.53;100.00
23589;BME280;11972;48.078;11.876;2023-01-25T16:48:24;96153.22;;;0.58;100.00
23589;BME280;11972;48.078;11.876;2023-01-25T16:52:24;96161.66;;;0.62;100.00
23589;BME280;11972;48.078;11.876;2023-01-25T16:56:26;96150.31;;;0.63;100.00
23589;BME280;11972;48.078;11.876;2023-01-25T17:00:27;96141.06;;;0.59;100.00
23589;BME280;11972;48.078;11.876;2023-01-25T17:04:28;96150.34;;;0.37;100.00
23589;BME280;11972;48.078;11.876;2023-01-25T17:08:28;96148.25;;;0.17;100.00
23589;BME280;11972;48.078;11.876;2023-01-25T17:12:29;96140.22;;;0.07;100.00
23589;BME280;11972;48.078;11.876;2023-01-25T17:16:30;96134.94;;;0.09;100.00
23589;BME280;11972;48.078;11.876;2023-01-25T17:20:30;96127.47;;;0.17;100.00
23589;BME280;11972;48.078;11.876;2023-01-25T17:24:31;96121.22;;;0.07;100.00
23589;BME280;11972;48.078;11.876;2023-01-25T17:28:31;96116.63;;;0.23;100.00
23589;BME280;11972;48.078;11.876;2023-01-25T17:32:32;96121.94;;;0.34;100.00
23589;BME280;11972;48.078;11.876;2023-01-25T17:36:32;96118.91;;;0.40;100.00
23589;BME280;11972;48.078;11.876;2023-01-25T17:40:34;96108.81;;;0.48;100.00
23589;BME280;11972;48.078;11.876;2023-01-25T17:44:34;96103.28;;;0.53;100.00
23589;BME280;11972;48.078;11.876;2023-01-25T17:48:35;96104.16;;;0.54;100.00
23589;BME280;11972;48.078;11.876;2023-01-25T17:52:35;96097.91;;;0.56;100.00
23589;BME280;11972;48.078;11.876;2023-01-25T17:56:36;96093.13;;;0.50;100.00
23589;BME280;11972;48.078;11.876;2023-01-25T18:00:36;96089.78;;;0.48;100.00
23589;BME280;11972;48.078;11.876;2023-01-25T18:04:37;96087.53;;;0.43;100.00
23589;BME280;11972;48.078;11.876;2023-01-25T18:08:44;96081.50;;;0.30;100.00
23589;BME280;11972;48.078;11.876;2023-01-25T18:12:45;96077.97;;;0.31;100.00
23589;BME280;11972;48.078;11.876;2023-01-25T18:16:49;96072.16;;;0.28;100.00
23589;BME280;11972;48.078;11.876;2023-01-25T18:20:50;96053.03;;;0.41;100.00
23589;BME280;11972;48.078;11.876;2023-01-25T18:24:50;96058.41;;;0.51;100.00
23589;BME280;11972;48.078;11.876;2023-01-25T18:28:57;96056.34;;;0.43;100.00
23589;BME280;11972;48.078;11.876;2023-01-25T18:32:58;96057.38;;;0.28;100.00
23589;BME280;11972;48.078;11.876;2023-01-25T18:37:00;96047.34;;;0.11;100.00
23589;BME280;11972;48.078;11.876;2023-01-25T18:41:01;96045.78;;;-0.05;100.00
23589;BME280;11972;48.078;11.876;2023-01-25T18:45:03;96039.75;;;0.08;100.00
23589;BME280;11972;48.078;11.876;2023-01-25T18:49:04;96044.09;;;0.20;100.00
23589;BME280;11972;48.078;11.876;2023-01-25T18:53:05;96038.38;;;0.28;100.00
23589;BME280;11972;48.078;11.876;2023-01-25T18:57:08;96025.59;;;0.37;100.00
23589;BME280;11972;48.078;11.876;2023-01-25T19:01:13;96030.13;;;0.46;100.00
23589;BME280;11972;48.078;11.876;2023-01-25T19:05:14;96023.03;;;0.48;100.00
23589;BME280;11972;48.078;11.876;2023-01-25T19:09:17;96011.59;;;0.51;100.00
23589;BME280;11972;48.078;11.876;2023-01-25T19:13:18;96015.16;;;0.50;100.00
23589;BME280;11972;48.078;11.876;2023-01-25T19:17:18;96012.88;;;0.33;100.00
23589;BME280;11972;48.078;11.876;2023-01-25T19:21:20;96002.53;;;0.20;100.00
23589;BME280;11972;48.078;11.876;2023-01-25T19:25:21;95991.78;;;0.01;100.00
23589;BME280;11972;48.078;11.876;2023-01-25T19:29:21;95989.47;;;0.09;100.00
23589;BME280;11972;48.078;11.876;2023-01-25T19:33:22;95986.13;;;0.19;100.00
23589;BME280;11972;48.078;11.876;2023-01-25T19:37:22;95981.31;;;0.26;100.00
23589;BME280;11972;48.078;11.876;2023-01-25T19:41:25;95977.16;;;0.23;100.00
23589;BME280;11972;48.078;11.876;2023-01-25T19:45:25;95974.03;;;0.31;100.00
23589;BME280;11972;48.078;11.876;2023-01-25T19:49:26;95976.50;;;0.33;100.00
23589;BME280;11972;48.078;11.876;2023-01-25T19:53:26;95967.25;;;0.05;100.00
23589;BME280;11972;48.078;11.876;2023-01-25T19:57:26;95959.78;;;0.00;100.00
23589;BME280;11972;48.078;11.876;2023-01-25T20:01:26;95952.47;;;0.18;100.00
23589;BME280;11972;48.078;11.876;2023-01-25T20:05:27;95944.34;;;0.22;100.00
23589;BME280;11972;48.078;11.876;2023-01-25T20:09:27;95949.97;;;0.04;100.00
23589;BME280;11972;48.078;11.876;2023-01-25T20:13:28;95945.81;;;0.14;100.00
23589;BME280;11972;48.078;11.876;2023-01-25T20:17:28;95943.72;;;0.19;100.00
23589;BME280;11972;48.078;11.876;2023-01-25T20:21:30;95935.59;;;0.23;100.00
23589;BME280;11972;48.078;11.876;2023-01-25T20:25:33;95936.75;;;0.19;100.00
23589;BME280;11972;48.078;11.876;2023-01-25T20:29:33;95932.94;;;-0.01;100.00
23589;BME280;11972;48.078;11.876;2023-01-25T20:33:34;95929.81;;;0.07;100.00
23589;BME280;11972;48.078;11.876;2023-01-25T20:37:35;95931.69;;;0.18;100.00
23589;BME280;11972;48.078;11.876;2023-01-25T20:41:35;95923.56;;;0.22;100.00
23589;BME280;11972;48.078;11.876;2023-01-25T20:45:36;95922.94;;;0.19;100.00
23589;BME280;11972;48.078;11.876;2023-01-25T20:49:37;95924.38;;;0.23;100.00
23589;BME280;11972;48.078;11.876;2023-01-25T20:53:39;95919.19;;;0.23;100.00
23589;BME280;11972;48.078;11.876;2023-01-25T20:57:39;95912.13;;;0.25;100.00
23589;BME280;11972;48.078;11.876;2023-01-25T21:01:40;95905.84;;;0.28;100.00
23589;BME280;11972;48.078;11.876;2023-01-25T21:05:50;95899.63;;;0.30;100.00
23589;BME280;11972;48.078;11.876;2023-01-25T21:09:51;95897.72;;;0.32;100.00
23589;BME280;11972;48.078;11.876;2023-01-25T21:13:52;95896.19;;;0.30;100.00
23589;BME280;11972;48.078;11.876;2023-01-25T21:17:56;95890.38;;;0.26;100.00
23589;BME280;11972;48.078;11.876;2023-01-25T21:21:56;95893.00;;;0.26;100.00
23589;BME280;11972;48.078;11.876;2023-01-25T21:25:56;95884.38;;;0.26;100.00
23589;BME280;11972;48.078;11.876;2023-01-25T21:29:57;95885.91;;;0.28;100.00
23589;BME280;11972;48.078;11.876;2023-01-25T21:33:58;95880.69;;;0.28;100.00
23589;BME280;11972;48.078;11.876;2023-01-25T21:37:58;95889.44;;;0.27;100.00
23589;BME280;11972;48.078;11.876;2023-01-25T21:42:00;95883.09;;;0.31;100.00
23589;BME280;11972;48.078;11.876;2023-01-25T21:46:00;95876.94;;;0.32;100.00
23589;BME280;11972;48.078;11.876;2023-01-25T21:50:14;95871.38;;;0.26;100.00
23589;BME280;11972;48.078;11.876;2023-01-25T21:54:34;95873.25;;;0.23;100.00
23589;BME280;11972;48.078;11.876;2023-01-25T21:58:35;95863.66;;;0.24;100.00
23589;BME280;11972;48.078;11.876;2023-01-25T22:02:36;95861.06;;;0.24;100.00
23589;BME280;11972;48.078;11.876;2023-01-25T22:06:36;95852.84;;;0.30;100.00
23589;BME280;11972;48.078;11.876;2023-01-25T22:10:37;95847.47;;;0.20;100.00
23589;BME280;11972;48.078;11.876;2023-01-25T22:14:37;95849.22;;;0.09;100.00
23589;BME280;11972;48.078;11.876;2023-01-25T22:18:39;95841.91;;;0.14;100.00
23589;BME280;11972;48.078;11.876;2023-01-25T22:22:40;95832.19;;;0.05;100.00